createdAt,value
2022-12-29T00:02:18.218Z,72.20
2022-12-29T00:04:45.164Z,72.20
2022-12-29T00:07:11.922Z,71.60
2022-12-29T00:09:38.926Z,71.30
2022-12-29T00:12:06.329Z,71.00
2022-12-29T00:14:51.891Z,71.60
2022-12-29T00:17:18.630Z,70.70
2022-12-29T00:20:03.869Z,71.10
2022-12-29T00:22:49.001Z,70.50
2022-12-29T00:25:34.918Z,70.30
2022-12-29T00:28:20.093Z,70.70
2022-12-29T00:31:05.418Z,70.10
2022-12-29T00:33:52.823Z,70.30
2022-12-29T00:36:26.944Z,71.30
2022-12-29T00:39:24.780Z,71.20
2022-12-29T00:42:10.427Z,71.60
2022-12-29T00:44:37.246Z,70.20
2022-12-29T00:47:05.317Z,70.20
2022-12-29T00:49:33.231Z,70.20
2022-12-29T00:52:05.420Z,70.20
2022-12-29T00:54:35.003Z,71.70
2022-12-29T00:57:02.662Z,71.20
2022-12-29T00:59:29.625Z,70.50
2022-12-29T01:01:57.871Z,69.80
2022-12-29T01:04:26.467Z,70.90
2022-12-29T01:06:53.747Z,71.00
2022-12-29T01:09:39.508Z,70.40
2022-12-29T01:12:07.530Z,69.80
2022-12-29T01:14:35.537Z,70.50
2022-12-29T01:17:04.385Z,70.30
2022-12-29T01:19:31.330Z,70.50
2022-12-29T01:21:58.197Z,70.00
2022-12-29T01:24:26.877Z,70.30
2022-12-29T01:26:55.220Z,70.30
2022-12-29T01:29:22.036Z,70.50
2022-12-29T01:31:50.449Z,71.00
2022-12-29T01:34:17.612Z,71.10
2022-12-29T01:36:45.086Z,71.50
2022-12-29T01:39:13.286Z,71.80
2022-12-29T01:41:41.373Z,72.20
2022-12-29T01:44:49.482Z,72.60
2022-12-29T01:47:39.582Z,74.60
2022-12-29T01:50:10.948Z,76.10
2022-12-29T01:52:45.010Z,74.80
2022-12-29T01:55:12.808Z,74.90
2022-12-29T01:57:44.403Z,74.30
2022-12-29T02:00:14.557Z,74.90
2022-12-29T02:02:47.221Z,74.50
2022-12-29T02:05:34.775Z,75.60
2022-12-29T02:08:02.487Z,75.80
2022-12-29T02:10:33.119Z,74.90
2022-12-29T02:13:00.504Z,75.00
2022-12-29T02:16:01.880Z,73.50
2022-12-29T02:18:48.042Z,75.30
2022-12-29T02:21:51.943Z,75.00
2022-12-29T02:24:50.338Z,75.60
2022-12-29T02:27:42.375Z,75.60
2022-12-29T02:30:15.975Z,75.60
2022-12-29T02:32:54.756Z,73.90
2022-12-29T02:35:53.272Z,74.80
2022-12-29T02:38:58.219Z,74.70
2022-12-29T02:41:43.167Z,75.10
2022-12-29T02:44:35.119Z,75.00
2022-12-29T02:47:17.283Z,74.60
2022-12-29T02:49:55.586Z,74.60
2022-12-29T02:52:58.379Z,74.40
2022-12-29T02:55:25.290Z,74.80
2022-12-29T02:58:07.790Z,72.40
2022-12-29T03:00:39.768Z,74.30
2022-12-29T03:03:42.832Z,73.40
2022-12-29T03:06:15.824Z,73.60
2022-12-29T03:09:22.972Z,73.90
2022-12-29T03:12:10.055Z,73.70
2022-12-29T03:15:17.949Z,73.20
2022-12-29T03:17:55.117Z,74.10
2022-12-29T03:20:27.638Z,73.20
2022-12-29T03:23:01.600Z,73.80
2022-12-29T03:25:39.215Z,73.70
2022-12-29T03:28:19.782Z,74.30
2022-12-29T03:30:48.249Z,73.60
2022-12-29T03:33:25.001Z,72.20
2022-12-29T03:35:58.457Z,73.50
2022-12-29T03:38:50.235Z,73.10
2022-12-29T03:41:23.628Z,73.40
2022-12-29T03:43:51.413Z,73.30
2022-12-29T03:46:18.257Z,71.80
2022-12-29T03:48:45.250Z,71.80
2022-12-29T03:51:12.038Z,71.70
2022-12-29T03:53:39.389Z,71.70
2022-12-29T03:56:06.394Z,71.60
2022-12-29T03:58:33.826Z,71.70
2022-12-29T04:01:07.121Z,71.40
2022-12-29T04:03:37.040Z,71.50
2022-12-29T04:06:05.038Z,71.40
2022-12-29T04:08:48.989Z,71.40
2022-12-29T04:11:15.786Z,71.30
2022-12-29T04:13:42.970Z,71.50
2022-12-29T04:16:14.905Z,71.40
2022-12-29T04:18:42.292Z,71.30
2022-12-29T04:21:09.042Z,72.20
2022-12-29T04:23:39.815Z,71.20
2022-12-29T04:26:09.939Z,71.80
2022-12-29T04:28:47.806Z,71.50
2022-12-29T04:31:50.007Z,70.90
2022-12-29T04:34:18.565Z,70.70
2022-12-29T04:36:46.589Z,70.50
2022-12-29T04:39:13.371Z,70.00
2022-12-29T04:41:41.639Z,70.00
2022-12-29T04:44:13.176Z,70.20
2022-12-29T04:46:55.875Z,69.60
2022-12-29T04:49:51.857Z,69.00
2022-12-29T04:52:36.978Z,69.00
2022-12-29T04:55:04.809Z,69.00
2022-12-29T04:57:31.826Z,69.50
2022-12-29T05:00:00.375Z,68.90
2022-12-29T05:02:27.481Z,68.50
2022-12-29T05:04:56.522Z,68.40
2022-12-29T05:07:23.554Z,68.80
2022-12-29T05:09:51.349Z,68.20
2022-12-29T05:12:18.170Z,68.00
2022-12-29T05:14:53.863Z,67.90
2022-12-29T05:17:20.873Z,67.90
2022-12-29T05:19:47.680Z,67.90
2022-12-29T05:22:15.447Z,67.80
2022-12-29T05:24:43.126Z,67.60
2022-12-29T05:27:10.934Z,67.40
2022-12-29T05:29:49.018Z,67.30
2022-12-29T05:32:15.965Z,67.30
2022-12-29T05:34:43.567Z,67.50
2022-12-29T05:37:10.328Z,67.80
2022-12-29T05:39:39.365Z,67.10
2022-12-29T05:42:07.171Z,67.10
2022-12-29T05:45:04.230Z,67.10
2022-12-29T05:47:53.531Z,67.40
2022-12-29T05:50:32.502Z,66.90
2022-12-29T05:53:16.097Z,66.80
2022-12-29T05:55:48.640Z,67.00
2022-12-29T05:58:17.229Z,67.50
2022-12-29T06:00:44.287Z,67.90
2022-12-29T06:03:12.367Z,67.30
2022-12-29T06:05:39.301Z,67.30
2022-12-29T06:08:06.346Z,66.50
2022-12-29T06:10:34.085Z,66.40
2022-12-29T06:13:06.496Z,66.40
2022-12-29T06:15:36.616Z,66.20
2022-12-29T06:18:05.827Z,66.70
2022-12-29T06:20:32.651Z,67.60
2022-12-29T06:22:59.524Z,66.80
2022-12-29T06:25:26.288Z,67.50
2022-12-29T06:27:53.004Z,67.10
2022-12-29T06:30:20.568Z,67.30
2022-12-29T06:32:47.985Z,67.20
2022-12-29T06:35:14.882Z,67.40
2022-12-29T06:37:50.536Z,67.60
2022-12-29T06:40:17.484Z,67.60
2022-12-29T06:43:06.503Z,68.00
2022-12-29T06:45:54.945Z,68.00
2022-12-29T06:48:21.797Z,68.10
2022-12-29T06:50:48.716Z,68.10
2022-12-29T06:53:15.399Z,68.20
2022-12-29T06:55:43.294Z,68.00
2022-12-29T06:58:10.369Z,69.00
2022-12-29T07:00:37.104Z,68.00
2022-12-29T07:03:04.055Z,67.70
2022-12-29T07:05:33.557Z,67.40
2022-12-29T07:08:00.843Z,67.00
2022-12-29T07:10:28.005Z,66.70
2022-12-29T07:12:54.747Z,65.90
2022-12-29T07:15:21.500Z,66.20
2022-12-29T07:17:50.353Z,66.30
2022-12-29T07:20:19.476Z,67.00
2022-12-29T07:22:50.253Z,67.40
2022-12-29T07:25:17.055Z,67.80
2022-12-29T07:27:44.429Z,68.50
2022-12-29T07:30:11.836Z,68.90
2022-12-29T07:32:38.650Z,69.40
2022-12-29T07:35:05.849Z,69.30
2022-12-29T07:37:32.857Z,69.70
2022-12-29T07:39:59.563Z,69.60
2022-12-29T07:42:26.302Z,70.80
2022-12-29T07:44:53.292Z,70.00
2022-12-29T07:47:27.263Z,70.30
2022-12-29T07:49:54.058Z,70.60
2022-12-29T07:52:20.817Z,70.10
2022-12-29T07:54:47.644Z,70.20
2022-12-29T07:57:14.426Z,69.90
2022-12-29T07:59:41.155Z,70.10
2022-12-29T08:02:11.787Z,70.30
2022-12-29T08:04:38.716Z,71.40
2022-12-29T08:07:05.579Z,69.90
2022-12-29T08:09:32.513Z,69.60
2022-12-29T08:11:59.250Z,69.50
2022-12-29T08:14:25.954Z,69.40
2022-12-29T08:16:52.689Z,69.20
2022-12-29T08:19:19.433Z,69.60
2022-12-29T08:21:46.223Z,68.80
2022-12-29T08:24:12.985Z,68.70
2022-12-29T08:26:39.806Z,68.30
2022-12-29T08:29:06.566Z,68.10
2022-12-29T08:31:33.348Z,68.00
2022-12-29T08:34:00.979Z,67.50
2022-12-29T08:36:27.826Z,68.10
2022-12-29T08:38:54.614Z,67.00
2022-12-29T08:41:21.356Z,66.60
2022-12-29T08:43:48.685Z,66.40
2022-12-29T08:46:16.057Z,66.40
2022-12-29T08:48:42.930Z,66.60
2022-12-29T08:51:09.998Z,65.70
2022-12-29T08:53:36.773Z,65.60
2022-12-29T08:56:05.630Z,65.30
2022-12-29T08:58:42.248Z,65.60
2022-12-29T09:01:10.549Z,65.40
2022-12-29T09:06:32.674Z,65.90
2022-12-29T09:09:03.491Z,66.40
2022-12-29T09:11:30.478Z,66.50
2022-12-29T09:13:58.054Z,66.20
2022-12-29T09:16:25.914Z,66.30
2022-12-29T09:18:52.716Z,66.90
2022-12-29T09:21:19.553Z,66.10
2022-12-29T09:23:46.505Z,66.00
2022-12-29T09:26:13.238Z,65.90
2022-12-29T09:28:40.048Z,65.80
2022-12-29T09:31:07.479Z,65.90
2022-12-29T09:33:35.156Z,66.70
2022-12-29T09:36:02.342Z,66.50
2022-12-29T09:38:29.953Z,66.80
2022-12-29T09:41:16.706Z,68.00
2022-12-29T09:44:07.694Z,68.40
2022-12-29T09:46:45.469Z,69.50
2022-12-29T09:49:30.286Z,70.20
2022-12-29T09:52:04.690Z,70.40
2022-12-29T09:54:48.211Z,71.00
2022-12-29T09:57:24.351Z,68.00
2022-12-29T09:59:55.344Z,71.30
2022-12-29T10:02:34.381Z,71.10
2022-12-29T10:05:01.572Z,72.70
2022-12-29T10:07:54.720Z,70.70
2022-12-29T10:10:51.884Z,72.10
2022-12-29T10:13:53.036Z,72.50
2022-12-29T10:16:41.353Z,73.20
2022-12-29T10:19:20.297Z,71.80
2022-12-29T10:22:27.771Z,72.90
2022-12-29T10:24:57.805Z,72.50
2022-12-29T10:27:25.184Z,72.10
2022-12-29T10:29:56.774Z,71.50
2022-12-29T10:32:49.401Z,72.40
2022-12-29T10:35:25.932Z,72.70
2022-12-29T10:38:36.144Z,72.20
2022-12-29T10:41:21.900Z,72.80
2022-12-29T10:43:52.297Z,73.40
2022-12-29T10:46:23.927Z,72.50
2022-12-29T10:48:50.902Z,72.70
2022-12-29T10:51:31.310Z,71.00
2022-12-29T10:54:03.754Z,72.70
2022-12-29T10:56:40.546Z,73.40
2022-12-29T10:59:17.018Z,73.40
2022-12-29T11:02:01.015Z,73.00
2022-12-29T11:05:05.130Z,72.80
2022-12-29T11:07:32.784Z,73.30
2022-12-29T11:10:20.965Z,72.10
2022-12-29T11:13:01.713Z,74.10
2022-12-29T11:15:38.902Z,73.40
2022-12-29T11:18:05.669Z,71.90
2022-12-29T11:20:38.369Z,71.50
2022-12-29T11:23:21.671Z,71.30
2022-12-29T11:26:08.119Z,72.80
2022-12-29T11:28:35.639Z,73.70
2022-12-29T11:31:04.246Z,72.40
2022-12-29T11:33:32.578Z,72.10
2022-12-29T11:36:03.794Z,71.90
2022-12-29T11:38:36.152Z,72.60
2022-12-29T11:41:04.937Z,72.20
2022-12-29T11:43:39.144Z,71.30
2022-12-29T11:46:07.373Z,73.00
2022-12-29T11:48:43.708Z,71.20
2022-12-29T11:51:12.551Z,72.50
2022-12-29T11:53:48.701Z,71.30
2022-12-29T11:56:17.797Z,72.60
2022-12-29T11:58:45.065Z,71.50
2022-12-29T12:01:24.373Z,70.50
2022-12-29T12:04:04.115Z,69.10
2022-12-29T12:06:36.111Z,71.40
2022-12-29T12:09:19.274Z,71.00
2022-12-29T12:11:47.426Z,71.60
2022-12-29T12:14:29.322Z,70.00
2022-12-29T12:17:38.311Z,72.20
2022-12-29T12:20:39.095Z,71.50
2022-12-29T12:23:33.769Z,72.20
2022-12-29T12:26:16.877Z,73.10
2022-12-29T12:28:55.292Z,73.00
2022-12-29T12:31:36.976Z,73.00
2022-12-29T12:34:12.236Z,71.10
2022-12-29T12:37:01.255Z,73.40
2022-12-29T12:39:33.638Z,73.00
2022-12-29T12:42:15.691Z,73.30
2022-12-29T12:45:20.118Z,71.00
2022-12-29T12:48:25.533Z,73.70
2022-12-29T12:50:58.016Z,73.50
2022-12-29T12:53:29.092Z,72.50
2022-12-29T12:56:01.559Z,71.00
2022-12-29T12:58:58.087Z,72.80
2022-12-29T13:01:39.399Z,72.10
2022-12-29T13:04:35.251Z,72.20
2022-12-29T13:07:20.417Z,71.50
2022-12-29T13:09:58.154Z,69.00
2022-12-29T13:12:47.318Z,70.60
2022-12-29T13:15:45.115Z,71.10
2022-12-29T13:18:39.780Z,70.80
2022-12-29T13:21:19.803Z,70.80
2022-12-29T13:23:58.378Z,70.50
2022-12-29T13:26:42.618Z,68.10
2022-12-29T13:29:33.372Z,70.30
2022-12-29T13:32:24.252Z,70.10
2022-12-29T13:35:33.517Z,70.30
2022-12-29T13:38:13.839Z,70.50
2022-12-29T13:40:46.173Z,69.70
2022-12-29T13:43:14.934Z,70.20
2022-12-29T13:45:43.754Z,69.70
2022-12-29T13:48:25.087Z,69.20
2022-12-29T13:50:56.791Z,69.60
2022-12-29T13:53:34.937Z,69.60
2022-12-29T13:56:11.725Z,70.30
2022-12-29T13:58:54.981Z,69.40
2022-12-29T14:01:40.767Z,69.60
2022-12-29T14:04:14.862Z,67.50
2022-12-29T14:06:43.233Z,69.80
2022-12-29T14:09:43.815Z,67.90
2022-12-29T14:12:29.561Z,69.80
2022-12-29T14:15:10.073Z,70.30
2022-12-29T14:17:44.034Z,69.60
2022-12-29T14:20:22.249Z,68.70
2022-12-29T14:23:01.061Z,71.80
2022-12-29T14:26:09.833Z,70.90
2022-12-29T14:28:39.490Z,70.80
2022-12-29T14:31:29.026Z,70.00
2022-12-29T14:34:08.309Z,70.70
2022-12-29T14:36:36.385Z,71.20
2022-12-29T14:39:04.045Z,69.00
2022-12-29T14:41:36.141Z,69.60
2022-12-29T14:44:18.726Z,70.50
2022-12-29T14:46:54.351Z,71.00
2022-12-29T14:49:33.955Z,68.90
2022-12-29T14:52:15.777Z,71.90
2022-12-29T14:54:46.480Z,72.00
2022-12-29T14:57:34.054Z,71.60
2022-12-29T15:00:09.865Z,72.20
2022-12-29T15:02:41.490Z,72.70
2022-12-29T15:05:27.227Z,72.30
2022-12-29T15:07:56.256Z,72.90
2022-12-29T15:10:24.891Z,71.70
2022-12-29T15:12:55.070Z,72.10
2022-12-29T15:15:24.938Z,72.60
2022-12-29T15:17:52.110Z,70.70
2022-12-29T15:20:29.667Z,71.40
2022-12-29T15:23:03.102Z,72.70
2022-12-29T15:25:31.141Z,70.80
2022-12-29T15:28:04.635Z,71.40
2022-12-29T15:30:31.810Z,73.20
2022-12-29T15:32:58.610Z,71.40
2022-12-29T15:35:38.633Z,71.30
2022-12-29T15:38:17.634Z,73.40
2022-12-29T15:40:45.992Z,73.10
2022-12-29T15:43:27.531Z,71.60
2022-12-29T15:45:55.958Z,72.60
2022-12-29T15:48:25.207Z,71.60
2022-12-29T15:50:52.893Z,71.80
2022-12-29T15:53:29.522Z,71.60
2022-12-29T15:56:14.772Z,72.40
2022-12-29T15:58:48.550Z,72.90
2022-12-29T16:01:27.033Z,71.50
2022-12-29T16:03:54.918Z,72.70
2022-12-29T16:06:37.893Z,70.80
2022-12-29T16:09:16.405Z,71.50
2022-12-29T16:11:48.364Z,70.90
2022-12-29T16:14:21.329Z,71.30
2022-12-29T16:16:50.185Z,71.50
2022-12-29T16:19:30.173Z,70.90
2022-12-29T16:21:59.254Z,71.20
2022-12-29T16:24:30.592Z,71.20
2022-12-29T16:27:06.273Z,71.30
2022-12-29T16:29:34.150Z,72.10
2022-12-29T16:32:03.768Z,70.10
2022-12-29T16:34:46.140Z,70.00
2022-12-29T16:37:33.078Z,71.10
2022-12-29T16:40:18.326Z,71.60
2022-12-29T16:42:50.998Z,71.90
2022-12-29T16:45:21.602Z,68.80
2022-12-29T16:48:15.002Z,70.60
2022-12-29T16:50:43.981Z,70.60
2022-12-29T16:53:26.343Z,69.70
2022-12-29T16:55:54.386Z,70.20
2022-12-29T16:58:28.502Z,69.50
2022-12-29T17:00:57.253Z,69.50
2022-12-29T17:03:35.474Z,69.70
2022-12-29T17:06:03.110Z,69.60
2022-12-29T17:08:29.892Z,68.70
2022-12-29T17:11:16.645Z,68.80
2022-12-29T17:13:43.410Z,70.50
2022-12-29T17:16:11.425Z,69.00
2022-12-29T17:18:38.751Z,69.70
2022-12-29T17:21:05.656Z,69.20
2022-12-29T17:23:34.279Z,68.80
2022-12-29T17:26:02.256Z,70.00
2022-12-29T17:28:32.746Z,69.30
2022-12-29T17:31:06.811Z,70.40
2022-12-29T17:33:39.185Z,70.60
2022-12-29T17:36:06.184Z,70.60
2022-12-29T17:38:35.961Z,68.80
2022-12-29T17:41:02.857Z,70.20
2022-12-29T17:43:36.479Z,68.60
2022-12-29T17:46:06.947Z,68.80
2022-12-29T17:48:33.854Z,70.90
2022-12-29T17:51:00.876Z,68.90
2022-12-29T17:53:30.379Z,68.90
2022-12-29T17:55:57.318Z,70.10
2022-12-29T17:58:29.002Z,69.00
2022-12-29T18:00:59.561Z,70.70
2022-12-29T18:03:32.983Z,70.20
2022-12-29T18:06:00.280Z,70.70
2022-12-29T18:08:29.318Z,68.40
2022-12-29T18:10:56.832Z,68.80
2022-12-29T18:13:25.822Z,68.60
2022-12-29T18:15:54.074Z,68.20
2022-12-29T18:18:23.837Z,68.10
2022-12-29T18:20:53.327Z,69.20
2022-12-29T18:23:39.937Z,69.30
2022-12-29T18:26:11.713Z,70.10
2022-12-29T18:28:38.408Z,69.80
2022-12-29T18:31:21.426Z,68.10
2022-12-29T18:33:50.281Z,69.50
2022-12-29T18:36:18.200Z,69.00
2022-12-29T18:38:45.527Z,68.70
2022-12-29T18:41:24.030Z,68.40
2022-12-29T18:43:51.481Z,70.10
2022-12-29T18:46:22.845Z,68.40
2022-12-29T18:48:50.784Z,68.10
2022-12-29T18:51:23.179Z,68.30
2022-12-29T18:53:52.328Z,69.90
2022-12-29T18:56:19.100Z,68.50
2022-12-29T18:58:45.825Z,67.60
2022-12-29T19:01:24.931Z,67.80
2022-12-29T19:03:52.274Z,70.10
2022-12-29T19:06:20.747Z,68.20
2022-12-29T19:08:47.600Z,68.30
2022-12-29T19:11:14.328Z,68.00
2022-12-29T19:13:41.181Z,67.80
2022-12-29T19:16:16.925Z,67.60
2022-12-29T19:18:46.308Z,69.20
2022-12-29T19:21:15.788Z,67.50
2022-12-29T19:23:43.120Z,67.70
2022-12-29T19:26:30.237Z,68.10
2022-12-29T19:28:57.498Z,69.30
2022-12-29T19:31:24.675Z,67.90
2022-12-29T19:33:51.536Z,67.80
2022-12-29T19:36:18.906Z,67.70
2022-12-29T19:38:46.150Z,67.90
2022-12-29T19:41:14.530Z,68.10
2022-12-29T19:43:41.414Z,68.60
2022-12-29T19:46:16.110Z,67.90
2022-12-29T19:48:43.064Z,69.20
2022-12-29T19:51:13.518Z,68.10
2022-12-29T19:53:40.298Z,69.30
2022-12-29T19:56:08.636Z,68.10
2022-12-29T19:58:36.842Z,69.30
2022-12-29T20:01:13.712Z,68.90
2022-12-29T20:03:41.112Z,70.00
2022-12-29T20:06:09.412Z,69.00
2022-12-29T20:08:37.290Z,69.10
2022-12-29T20:11:06.655Z,69.10
2022-12-29T20:13:34.971Z,69.40
2022-12-29T20:16:04.128Z,69.40
2022-12-29T20:18:31.155Z,69.90
2022-12-29T20:21:02.664Z,68.10
2022-12-29T20:23:30.690Z,70.10
2022-12-29T20:25:59.448Z,68.70
2022-12-29T20:28:27.499Z,69.20
2022-12-29T20:31:06.994Z,69.00
2022-12-29T20:33:35.648Z,70.20
2022-12-29T20:36:23.993Z,69.40
2022-12-29T20:38:51.734Z,70.50
2022-12-29T20:41:19.124Z,69.20
2022-12-29T20:43:45.858Z,68.90
2022-12-29T20:46:18.123Z,68.40
2022-12-29T20:48:48.345Z,69.00
2022-12-29T20:51:15.082Z,69.00
2022-12-29T20:53:41.861Z,68.30
2022-12-29T20:56:14.620Z,68.40
2022-12-29T20:59:17.225Z,70.00
2022-12-29T21:01:28.474Z,68.30
2022-12-29T21:03:55.326Z,68.10
2022-12-29T21:06:22.048Z,68.00
2022-12-29T21:08:50.249Z,68.00
2022-12-29T21:11:17.536Z,68.90
2022-12-29T21:13:44.625Z,68.30
2022-12-29T21:16:13.214Z,67.50
2022-12-29T21:18:40.563Z,68.90
2022-12-29T21:21:12.366Z,67.90
2022-12-29T21:23:40.534Z,68.80
2022-12-29T21:26:09.186Z,67.80
2022-12-29T21:28:39.339Z,68.70
2022-12-29T21:31:11.324Z,68.80
2022-12-29T21:33:38.404Z,69.30
2022-12-29T21:36:07.072Z,67.90
2022-12-29T21:38:34.448Z,68.80
2022-12-29T21:41:09.517Z,67.90
2022-12-29T21:43:37.020Z,69.80
2022-12-29T21:46:05.119Z,68.50
2022-12-29T21:48:32.616Z,68.40
2022-12-29T21:51:30.177Z,68.50
2022-12-29T21:54:20.678Z,70.10
2022-12-29T21:56:48.718Z,69.80
2022-12-29T21:59:34.928Z,69.30
2022-12-29T22:02:22.011Z,69.30
2022-12-29T22:05:08.057Z,69.80
2022-12-29T22:07:53.368Z,68.70
2022-12-29T22:10:38.633Z,68.30
2022-12-29T22:13:05.421Z,68.40
2022-12-29T22:15:37.370Z,68.90
2022-12-29T22:18:05.150Z,71.30
2022-12-29T22:20:34.672Z,69.60
2022-12-29T22:23:02.140Z,70.10
2022-12-29T22:25:29.004Z,69.20
2022-12-29T22:27:59.440Z,69.30
2022-12-29T22:30:28.009Z,69.50
2022-12-29T22:32:56.738Z,70.10
2022-12-29T22:35:23.521Z,69.10
2022-12-29T22:37:50.370Z,69.20
2022-12-29T22:40:17.288Z,69.30
2022-12-29T22:42:44.041Z,69.40
2022-12-29T22:45:11.502Z,69.50
2022-12-29T22:47:38.229Z,69.60
2022-12-29T22:50:05.364Z,69.20
2022-12-29T22:52:32.237Z,69.40
2022-12-29T22:55:04.562Z,69.20
2022-12-29T22:57:33.391Z,69.10
2022-12-29T23:00:00.168Z,69.70
2022-12-29T23:02:27.600Z,69.10
2022-12-29T23:05:04.007Z,69.40
2022-12-29T23:07:31.414Z,69.20
2022-12-29T23:09:58.277Z,69.20
2022-12-29T23:12:25.371Z,69.10
2022-12-29T23:14:52.061Z,69.30
2022-12-29T23:17:18.792Z,69.30
2022-12-29T23:19:45.638Z,69.50
2022-12-29T23:22:12.371Z,70.60
2022-12-29T23:24:39.120Z,69.70
2022-12-29T23:27:05.958Z,70.00
2022-12-29T23:29:32.784Z,69.80
2022-12-29T23:31:59.718Z,70.00
2022-12-29T23:34:26.715Z,69.70
2022-12-29T23:36:53.565Z,70.00
2022-12-29T23:39:24.325Z,69.90
2022-12-29T23:41:51.927Z,70.70
2022-12-29T23:44:18.743Z,70.70
2022-12-29T23:46:45.647Z,69.90
2022-12-29T23:49:12.632Z,69.80
2022-12-29T23:51:39.417Z,69.90
2022-12-29T23:54:06.174Z,70.00
2022-12-29T23:56:33.085Z,70.00
2022-12-29T23:59:00.073Z,70.00
